createdAt,value
2022-12-18T00:03:12.828Z,19.17
2022-12-18T00:08:15.160Z,20.13
2022-12-18T00:13:17.571Z,18.90
2022-12-18T00:18:20.635Z,20.57
2022-12-18T00:23:22.570Z,19.00
2022-12-18T00:28:24.177Z,19.47
2022-12-18T00:33:25.860Z,18.77
2022-12-18T00:38:27.544Z,20.07
2022-12-18T00:43:29.212Z,18.47
2022-12-18T00:48:31.151Z,17.67
2022-12-18T00:53:32.749Z,18.77
2022-12-18T00:58:34.388Z,18.80
2022-12-18T01:03:38.646Z,18.33
2022-12-18T01:08:40.688Z,16.83
2022-12-18T01:13:43.009Z,18.47
2022-12-18T01:18:44.895Z,17.17
2022-12-18T01:23:47.069Z,16.77
2022-12-18T01:28:48.955Z,18.10
2022-12-18T01:33:52.151Z,17.53
2022-12-18T01:38:54.552Z,17.73
2022-12-18T01:43:58.394Z,15.83
2022-12-18T01:49:01.849Z,15.80
2022-12-18T01:54:03.604Z,14.03
2022-12-18T01:59:07.870Z,14.60
2022-12-18T02:04:27.397Z,14.30
2022-12-18T02:09:35.352Z,12.87
2022-12-18T02:14:52.946Z,13.57
2022-12-18T02:19:57.694Z,13.13
2022-12-18T02:25:05.360Z,12.47
2022-12-18T02:30:08.359Z,11.60
2022-12-18T02:35:15.137Z,12.07
2022-12-18T02:40:18.583Z,12.37
2022-12-18T02:45:20.662Z,12.77
2022-12-18T02:50:32.790Z,12.30
2022-12-18T02:55:42.121Z,11.50
2022-12-18T03:01:03.524Z,11.63
2022-12-18T03:06:10.666Z,11.23
2022-12-18T03:11:14.762Z,10.37
2022-12-18T03:16:25.144Z,10.17
2022-12-18T03:21:34.766Z,9.90
2022-12-18T03:26:39.142Z,9.23
2022-12-18T03:31:43.709Z,10.13
2022-12-18T03:36:45.382Z,9.60
2022-12-18T03:41:58.244Z,9.40
2022-12-18T03:47:21.966Z,9.87
2022-12-18T03:52:39.132Z,9.30
2022-12-18T03:57:43.957Z,9.20
2022-12-18T04:02:49.029Z,9.43
2022-12-18T04:07:58.008Z,9.90
2022-12-18T04:13:00.577Z,9.27
2022-12-18T04:18:03.316Z,8.97
2022-12-18T04:23:12.253Z,8.63
2022-12-18T04:28:14.654Z,9.63
2022-12-18T04:33:16.347Z,9.60
2022-12-18T04:38:18.340Z,9.63
2022-12-18T04:43:23.589Z,8.97
2022-12-18T04:48:25.532Z,8.87
2022-12-18T04:53:27.369Z,9.47
2022-12-18T04:58:28.981Z,9.87
2022-12-18T05:03:30.929Z,7.73
2022-12-18T05:08:32.849Z,8.37
2022-12-18T05:13:35.872Z,8.70
2022-12-18T05:18:38.094Z,7.60
2022-12-18T05:23:40.199Z,8.03
2022-12-18T05:28:42.010Z,7.60
2022-12-18T05:33:44.066Z,7.80
2022-12-18T05:38:47.141Z,8.37
2022-12-18T05:43:48.809Z,8.83
2022-12-18T05:48:51.738Z,9.50
2022-12-18T05:53:53.427Z,8.97
2022-12-18T05:58:55.577Z,8.93
2022-12-18T06:03:57.293Z,8.73
2022-12-18T06:08:59.184Z,9.50
2022-12-18T06:14:00.899Z,8.93
2022-12-18T06:19:04.878Z,9.13
2022-12-18T06:24:06.877Z,9.53
2022-12-18T06:29:08.508Z,8.23
2022-12-18T06:34:10.153Z,8.77
2022-12-18T06:39:11.744Z,8.77
2022-12-18T06:44:13.354Z,8.40
2022-12-18T06:49:16.906Z,7.93
2022-12-18T06:54:18.551Z,8.63
2022-12-18T06:59:20.287Z,8.57
2022-12-18T07:04:21.898Z,7.60
2022-12-18T07:09:23.503Z,8.50
2022-12-18T07:14:25.107Z,8.50
2022-12-18T07:19:26.706Z,7.73
2022-12-18T07:24:28.891Z,8.57
2022-12-18T07:29:30.480Z,9.47
2022-12-18T07:34:32.214Z,9.37
2022-12-18T07:39:33.851Z,8.87
2022-12-18T07:44:35.622Z,9.07
2022-12-18T07:49:37.480Z,9.00
2022-12-18T07:54:39.842Z,8.87
2022-12-18T07:59:41.537Z,9.60
2022-12-18T08:04:43.273Z,9.43
2022-12-18T08:09:45.108Z,10.57
2022-12-18T08:14:46.725Z,10.03
2022-12-18T08:19:48.313Z,9.37
2022-12-18T08:24:49.902Z,9.67
2022-12-18T08:29:51.551Z,10.80
2022-12-18T08:34:53.250Z,10.30
2022-12-18T08:39:54.908Z,10.60
2022-12-18T08:44:56.518Z,12.70
2022-12-18T08:49:58.140Z,11.97
2022-12-18T08:54:59.724Z,12.33
2022-12-18T09:00:01.371Z,13.33
2022-12-18T09:05:03.067Z,13.93
2022-12-18T09:10:05.247Z,12.87
2022-12-18T09:15:07.199Z,12.27
2022-12-18T09:20:09.258Z,12.60
2022-12-18T09:25:10.927Z,13.80
2022-12-18T09:30:12.800Z,13.23
2022-12-18T09:35:14.429Z,14.70
2022-12-18T09:40:19.513Z,14.80
2022-12-18T09:45:21.271Z,15.53
2022-12-18T09:50:33.260Z,16.13
2022-12-18T09:55:38.257Z,15.00
2022-12-18T10:00:39.950Z,15.20
2022-12-18T10:05:55.637Z,16.07
2022-12-18T10:11:42.633Z,14.20
2022-12-18T10:17:16.358Z,13.67
2022-12-18T10:22:47.028Z,15.00
2022-12-18T10:27:49.345Z,14.33
2022-12-18T10:32:51.470Z,14.57
2022-12-18T10:38:22.971Z,14.63
2022-12-18T10:43:27.632Z,14.27
2022-12-18T10:48:29.959Z,13.93
2022-12-18T10:53:32.824Z,14.77
2022-12-18T10:58:36.939Z,14.53
2022-12-18T11:03:46.712Z,14.23
2022-12-18T11:09:00.421Z,15.90
2022-12-18T11:14:05.843Z,15.97
2022-12-18T11:19:36.047Z,14.37
2022-12-18T11:24:37.746Z,14.43
2022-12-18T11:29:46.208Z,14.47
2022-12-18T11:34:58.774Z,13.90
2022-12-18T11:40:06.417Z,14.47
2022-12-18T11:45:16.685Z,13.80
2022-12-18T11:50:43.743Z,14.33
2022-12-18T11:56:07.008Z,13.57
2022-12-18T12:01:11.912Z,14.03
2022-12-18T12:06:45.965Z,14.30
2022-12-18T12:12:11.834Z,13.93
2022-12-18T12:17:45.924Z,13.50
2022-12-18T12:22:59.545Z,13.80
2022-12-18T12:28:33.464Z,14.33
2022-12-18T12:34:02.583Z,13.27
2022-12-18T12:39:09.047Z,13.13
2022-12-18T12:44:34.434Z,14.83
2022-12-18T12:49:40.819Z,14.77
2022-12-18T12:54:43.095Z,13.23
2022-12-18T12:59:59.940Z,13.97
2022-12-18T13:05:07.664Z,12.93
2022-12-18T13:10:12.103Z,13.73
2022-12-18T13:15:22.498Z,13.20
2022-12-18T13:20:34.510Z,13.30
2022-12-18T13:25:38.333Z,12.87
2022-12-18T13:30:53.437Z,14.27
2022-12-18T13:36:27.169Z,13.83
2022-12-18T13:41:30.145Z,13.83
2022-12-18T13:46:46.679Z,14.77
2022-12-18T13:51:54.246Z,13.33
2022-12-18T13:56:55.960Z,13.90
2022-12-18T14:02:00.666Z,11.73
2022-12-18T14:07:23.058Z,11.73
2022-12-18T14:12:52.436Z,11.43
2022-12-18T14:17:56.121Z,10.97
2022-12-18T14:22:58.414Z,11.27
2022-12-18T14:28:12.330Z,11.47
2022-12-18T14:33:15.382Z,11.03
2022-12-18T14:38:16.979Z,10.53
2022-12-18T14:43:18.601Z,11.37
2022-12-18T14:48:23.829Z,10.87
2022-12-18T14:53:54.156Z,11.73
2022-12-18T14:58:58.675Z,11.37
2022-12-18T15:04:01.558Z,11.03
2022-12-18T15:09:26.212Z,11.40
2022-12-18T15:14:30.927Z,11.87
2022-12-18T15:19:40.004Z,12.03
2022-12-18T15:24:41.578Z,12.83
2022-12-18T15:29:43.227Z,12.17
2022-12-18T15:34:44.925Z,12.10
2022-12-18T15:39:46.513Z,11.27
2022-12-18T15:44:48.211Z,12.17
2022-12-18T15:49:49.853Z,11.93
2022-12-18T15:55:10.141Z,11.47
2022-12-18T16:00:13.443Z,11.97
2022-12-18T16:05:16.527Z,11.77
2022-12-18T16:10:18.207Z,12.60
2022-12-18T16:15:24.321Z,12.97
2022-12-18T16:20:26.470Z,12.23
2022-12-18T16:25:29.357Z,12.37
2022-12-18T16:30:33.826Z,12.97
2022-12-18T16:35:40.498Z,12.30
2022-12-18T16:41:02.051Z,12.27
2022-12-18T16:46:03.988Z,12.60
2022-12-18T16:51:05.878Z,12.67
2022-12-18T16:56:07.944Z,12.00
2022-12-18T17:01:11.076Z,12.30
2022-12-18T17:06:12.756Z,12.03
2022-12-18T17:11:14.450Z,12.90
2022-12-18T17:16:17.531Z,12.17
2022-12-18T17:21:19.884Z,13.50
2022-12-18T17:26:21.634Z,12.20
2022-12-18T17:31:24.863Z,12.90
2022-12-18T17:36:31.988Z,12.17
2022-12-18T17:41:34.066Z,12.10
2022-12-18T17:46:35.727Z,12.20
2022-12-18T17:51:37.477Z,12.03
2022-12-18T17:56:39.692Z,11.90
2022-12-18T18:01:44.810Z,13.40
2022-12-18T18:06:47.123Z,11.57
2022-12-18T18:12:07.678Z,12.60
2022-12-18T18:17:09.373Z,10.70
2022-12-18T18:22:10.975Z,11.07
2022-12-18T18:27:12.604Z,10.70
2022-12-18T18:32:14.261Z,10.63
2022-12-18T18:37:15.861Z,10.57
2022-12-18T18:42:17.631Z,10.77
2022-12-18T18:47:19.325Z,10.40
2022-12-18T18:52:21.174Z,11.00
2022-12-18T18:57:27.452Z,10.20
2022-12-18T19:02:31.779Z,11.47
2022-12-18T19:07:33.522Z,10.63
2022-12-18T19:12:53.867Z,10.60
2022-12-18T19:17:56.631Z,12.27
2022-12-18T19:22:58.219Z,11.63
2022-12-18T19:27:59.902Z,11.33
2022-12-18T19:33:14.712Z,11.33
2022-12-18T19:38:23.227Z,11.67
2022-12-18T19:43:25.021Z,11.10
2022-12-18T19:48:26.642Z,12.00
2022-12-18T19:53:28.261Z,12.30
2022-12-18T19:58:29.918Z,11.83
2022-12-18T20:03:42.873Z,11.83
2022-12-18T20:08:47.376Z,10.70
2022-12-18T20:13:49.001Z,11.10
2022-12-18T20:18:50.647Z,12.07
2022-12-18T20:23:55.754Z,11.23
2022-12-18T20:28:57.407Z,11.27
2022-12-18T20:34:00.199Z,11.23
2022-12-18T20:39:05.268Z,11.63
2022-12-18T20:44:21.675Z,11.40
2022-12-18T20:49:26.265Z,11.33
2022-12-18T20:54:29.076Z,10.80
2022-12-18T20:59:30.813Z,11.30
2022-12-18T21:04:32.397Z,11.10
2022-12-18T21:09:38.320Z,11.17
2022-12-18T21:14:40.236Z,11.27
2022-12-18T21:19:41.876Z,11.80
2022-12-18T21:24:43.891Z,12.33
2022-12-18T21:29:47.035Z,12.73
2022-12-18T21:34:49.270Z,12.47
2022-12-18T21:39:50.832Z,12.37
2022-12-18T21:44:52.626Z,12.80
2022-12-18T21:49:54.253Z,12.80
2022-12-18T21:54:55.857Z,12.83
2022-12-18T21:59:57.496Z,14.10
2022-12-18T22:04:59.066Z,14.00
2022-12-18T22:10:01.223Z,14.53
2022-12-18T22:15:05.236Z,14.70
2022-12-18T22:20:09.246Z,14.57
2022-12-18T22:25:11.039Z,14.77
2022-12-18T22:30:14.456Z,15.23
2022-12-18T22:35:16.346Z,16.13
2022-12-18T22:40:25.769Z,15.17
2022-12-18T22:45:28.157Z,15.67
2022-12-18T22:50:30.129Z,15.73
2022-12-18T22:55:31.739Z,16.07
2022-12-18T23:00:33.693Z,14.50
2022-12-18T23:05:35.376Z,15.37
2022-12-18T23:10:38.698Z,16.00
2022-12-18T23:15:43.115Z,15.53
2022-12-18T23:20:44.956Z,14.43
2022-12-18T23:25:47.608Z,15.00
2022-12-18T23:30:50.092Z,14.93
2022-12-18T23:35:51.776Z,15.20
2022-12-18T23:40:54.217Z,15.57
2022-12-18T23:45:58.442Z,16.13
2022-12-18T23:51:08.300Z,15.63
2022-12-18T23:56:11.018Z,16.13
